createdAt,value
2022-12-08T00:01:39.234Z,2.33
2022-12-08T00:04:06.368Z,1.90
2022-12-08T00:06:53.840Z,2.50
2022-12-08T00:09:38.553Z,2.30
2022-12-08T00:12:16.605Z,2.95
2022-12-08T00:14:45.088Z,2.50
2022-12-08T00:17:13.091Z,2.33
2022-12-08T00:19:40.308Z,3.03
2022-12-08T00:22:07.904Z,2.97
2022-12-08T00:24:35.842Z,2.70
2022-12-08T00:27:02.747Z,3.30
2022-12-08T00:29:29.185Z,3.22
2022-12-08T00:31:55.705Z,4.00
2022-12-08T00:34:22.172Z,3.40
2022-12-08T00:36:48.694Z,3.92
2022-12-08T00:39:15.829Z,4.03
2022-12-08T00:42:00.968Z,4.40
2022-12-08T00:44:27.395Z,4.65
2022-12-08T00:46:54.076Z,4.75
2022-12-08T00:49:21.001Z,5.00
2022-12-08T00:51:47.446Z,4.93
2022-12-08T00:54:13.854Z,5.20
2022-12-08T00:56:40.300Z,5.28
2022-12-08T00:59:07.255Z,5.47
2022-12-08T01:01:34.682Z,4.85
2022-12-08T01:04:05.694Z,5.18
2022-12-08T01:06:32.202Z,5.15
2022-12-08T01:08:58.607Z,4.18
2022-12-08T01:11:25.064Z,4.38
2022-12-08T01:13:51.530Z,3.78
2022-12-08T01:16:22.925Z,4.20
2022-12-08T01:18:49.851Z,3.10
2022-12-08T01:21:17.038Z,3.58
2022-12-08T01:23:43.454Z,3.97
2022-12-08T01:26:11.254Z,3.20
2022-12-08T01:28:38.424Z,4.00
2022-12-08T01:31:04.929Z,4.55
2022-12-08T01:33:31.778Z,3.28
2022-12-08T01:36:04.209Z,3.22
2022-12-08T01:38:32.167Z,2.83
2022-12-08T01:40:58.880Z,3.10
2022-12-08T01:43:25.344Z,2.95
2022-12-08T01:45:51.794Z,3.38
2022-12-08T01:48:24.475Z,3.80
2022-12-08T01:50:51.342Z,3.47
2022-12-08T01:53:21.930Z,3.85
2022-12-08T01:55:52.378Z,3.28
2022-12-08T01:58:32.803Z,3.38
2022-12-08T02:00:59.248Z,3.25
2022-12-08T02:03:36.943Z,2.63
2022-12-08T02:06:03.998Z,2.78
2022-12-08T02:08:31.567Z,2.30
2022-12-08T02:10:57.916Z,2.30
2022-12-08T02:13:24.653Z,2.45
2022-12-08T02:16:07.603Z,2.72
2022-12-08T02:18:39.906Z,2.50
2022-12-08T02:21:29.535Z,3.08
2022-12-08T02:24:29.559Z,2.90
2022-12-08T02:27:13.533Z,3.08
2022-12-08T02:29:45.955Z,3.15
2022-12-08T02:32:27.391Z,3.03
2022-12-08T02:35:35.346Z,3.17
2022-12-08T02:38:06.414Z,3.75
2022-12-08T02:40:52.579Z,3.88
2022-12-08T02:43:39.740Z,3.97
2022-12-08T02:46:09.929Z,3.92
2022-12-08T02:51:02.899Z,4.80
2022-12-08T02:53:30.622Z,4.80
2022-12-08T02:56:35.477Z,3.97
2022-12-08T02:59:41.635Z,4.68
2022-12-08T03:02:10.995Z,3.42
2022-12-08T03:04:48.503Z,5.20
2022-12-08T03:07:35.074Z,5.20
2022-12-08T03:10:16.504Z,5.20
2022-12-08T03:12:48.844Z,5.50
2022-12-08T03:15:18.254Z,3.28
2022-12-08T03:17:47.020Z,5.05
2022-12-08T03:20:15.406Z,5.38
2022-12-08T03:22:43.191Z,4.05
2022-12-08T03:25:13.651Z,4.20
2022-12-08T03:27:40.160Z,4.65
2022-12-08T03:30:07.510Z,5.57
2022-12-08T03:32:48.298Z,4.97
2022-12-08T03:35:18.255Z,5.13
2022-12-08T03:37:44.687Z,5.13
2022-12-08T03:40:14.351Z,5.95
2022-12-08T03:42:41.059Z,5.85
2022-12-08T03:45:07.791Z,5.88
2022-12-08T03:47:34.227Z,6.90
2022-12-08T03:50:00.892Z,5.82
2022-12-08T03:52:27.331Z,5.85
2022-12-08T03:54:53.759Z,6.13
2022-12-08T03:57:20.137Z,5.55
2022-12-08T03:59:46.490Z,5.63
2022-12-08T04:02:12.954Z,5.43
2022-12-08T04:04:39.358Z,4.82
2022-12-08T04:07:05.709Z,5.45
2022-12-08T04:09:32.132Z,4.60
2022-12-08T04:11:58.506Z,4.40
2022-12-08T04:14:25.017Z,4.13
2022-12-08T04:16:51.484Z,4.65
2022-12-08T04:19:17.855Z,5.05
2022-12-08T04:21:44.254Z,4.20
2022-12-08T04:24:10.671Z,4.00
2022-12-08T04:26:37.096Z,4.25
2022-12-08T04:29:03.603Z,3.22
2022-12-08T04:31:30.182Z,2.25
2022-12-08T04:33:56.625Z,2.95
2022-12-08T04:36:23.716Z,2.53
2022-12-08T04:38:50.293Z,2.17
2022-12-08T04:41:17.733Z,1.92
2022-12-08T04:43:44.521Z,1.75
2022-12-08T04:46:11.568Z,1.90
2022-12-08T04:48:38.854Z,2.10
2022-12-08T04:51:05.759Z,1.90
2022-12-08T04:53:32.379Z,1.90
2022-12-08T04:55:59.030Z,1.70
2022-12-08T04:58:25.500Z,1.48
2022-12-08T05:00:51.961Z,1.55
2022-12-08T05:03:21.383Z,1.48
2022-12-08T05:05:52.149Z,1.33
2022-12-08T05:08:18.726Z,1.33
2022-12-08T05:10:45.166Z,1.42
2022-12-08T05:13:11.562Z,1.63
2022-12-08T05:15:38.084Z,1.50
2022-12-08T05:18:06.255Z,1.48
2022-12-08T05:20:32.684Z,1.45
2022-12-08T05:22:59.117Z,1.60
2022-12-08T05:25:25.486Z,1.42
2022-12-08T05:27:55.296Z,1.33
2022-12-08T05:30:29.510Z,1.52
2022-12-08T05:32:55.930Z,1.40
2022-12-08T05:35:22.347Z,1.50
2022-12-08T05:37:48.728Z,1.42
2022-12-08T05:40:15.156Z,1.60
2022-12-08T05:42:41.604Z,1.65
2022-12-08T05:45:08.703Z,1.33
2022-12-08T05:47:36.337Z,1.33
2022-12-08T05:50:03.294Z,1.55
2022-12-08T05:52:29.991Z,1.50
2022-12-08T05:54:56.416Z,1.70
2022-12-08T05:57:22.852Z,1.50
2022-12-08T05:59:49.297Z,1.80
2022-12-08T06:02:15.897Z,2.22
2022-12-08T06:04:42.422Z,2.08
2022-12-08T06:07:14.529Z,1.95
2022-12-08T06:09:42.428Z,2.00
2022-12-08T06:12:11.588Z,1.90
2022-12-08T06:14:39.157Z,1.95
2022-12-08T06:17:05.758Z,1.48
2022-12-08T06:19:32.256Z,1.77
2022-12-08T06:21:58.647Z,1.80
2022-12-08T06:24:25.066Z,1.80
2022-12-08T06:26:51.488Z,1.60
2022-12-08T06:29:17.888Z,1.48
2022-12-08T06:31:44.340Z,1.40
2022-12-08T06:34:10.786Z,1.30
2022-12-08T06:36:37.208Z,1.20
2022-12-08T06:39:03.751Z,1.30
2022-12-08T06:41:30.197Z,1.30
2022-12-08T06:43:57.534Z,1.20
2022-12-08T06:46:24.219Z,1.25
2022-12-08T06:48:50.707Z,1.13
2022-12-08T06:51:19.218Z,1.10
2022-12-08T06:53:46.491Z,1.23
2022-12-08T06:56:14.048Z,1.40
2022-12-08T06:58:40.507Z,1.65
2022-12-08T07:01:09.083Z,1.60
2022-12-08T07:03:36.787Z,1.50
2022-12-08T07:06:04.623Z,1.73
2022-12-08T07:08:32.082Z,1.60
2022-12-08T07:10:58.670Z,1.42
2022-12-08T07:13:25.033Z,1.63
2022-12-08T07:15:51.883Z,1.55
2022-12-08T07:18:18.323Z,1.80
2022-12-08T07:20:44.744Z,1.85
2022-12-08T07:23:11.324Z,1.80
2022-12-08T07:25:37.709Z,2.00
2022-12-08T07:28:08.308Z,1.83
2022-12-08T07:30:34.788Z,2.20
2022-12-08T07:33:02.960Z,1.98
2022-12-08T07:35:29.327Z,1.73
2022-12-08T07:37:55.713Z,2.60
2022-12-08T07:40:22.146Z,2.28
2022-12-08T07:42:48.503Z,2.40
2022-12-08T07:45:14.853Z,1.85
2022-12-08T07:47:41.319Z,1.77
2022-12-08T07:50:08.422Z,2.15
2022-12-08T07:52:35.373Z,2.45
2022-12-08T07:55:02.018Z,2.35
2022-12-08T07:57:28.460Z,2.60
2022-12-08T07:59:54.926Z,1.90
2022-12-08T08:02:24.969Z,1.95
2022-12-08T08:04:53.628Z,1.83
2022-12-08T08:07:20.164Z,1.63
2022-12-08T08:09:46.572Z,1.52
2022-12-08T08:15:01.229Z,1.50
2022-12-08T08:17:28.577Z,1.92
2022-12-08T08:19:55.194Z,1.92
2022-12-08T08:22:21.600Z,1.90
2022-12-08T08:24:48.006Z,1.45
2022-12-08T08:27:14.489Z,1.50
2022-12-08T08:29:40.910Z,1.60
2022-12-08T08:32:07.295Z,1.65
2022-12-08T08:34:33.658Z,2.10
2022-12-08T08:37:00.076Z,2.20
2022-12-08T08:39:26.629Z,1.75
2022-12-08T08:41:53.191Z,1.83
2022-12-08T08:44:19.597Z,1.90
2022-12-08T08:46:46.060Z,1.60
2022-12-08T08:49:12.803Z,1.77
2022-12-08T08:51:39.291Z,1.70
2022-12-08T08:54:05.745Z,1.42
2022-12-08T08:56:32.400Z,1.58
2022-12-08T08:58:58.800Z,1.75
2022-12-08T09:01:27.571Z,1.60
2022-12-08T09:03:55.208Z,1.55
2022-12-08T09:06:22.664Z,1.65
2022-12-08T09:08:49.616Z,1.40
2022-12-08T09:11:18.424Z,1.67
2022-12-08T09:13:47.018Z,1.55
2022-12-08T09:16:14.552Z,1.77
2022-12-08T09:18:41.046Z,1.60
2022-12-08T09:21:11.447Z,1.65
2022-12-08T09:23:37.814Z,1.23
2022-12-08T09:26:05.104Z,1.50
2022-12-08T09:28:32.309Z,2.17
2022-12-08T09:30:58.857Z,1.88
2022-12-08T09:33:25.323Z,1.80
2022-12-08T09:35:51.725Z,1.50
2022-12-08T09:38:18.282Z,2.00
2022-12-08T09:41:04.944Z,2.10
2022-12-08T09:43:45.803Z,1.67
2022-12-08T09:46:14.825Z,1.50
2022-12-08T09:49:00.259Z,1.50
2022-12-08T09:51:45.527Z,1.65
2022-12-08T09:54:16.695Z,1.40
2022-12-08T09:56:43.465Z,1.58
2022-12-08T09:59:22.064Z,1.60
2022-12-08T10:01:48.851Z,1.60
2022-12-08T10:04:34.236Z,2.50
2022-12-08T10:07:14.043Z,1.45
2022-12-08T10:10:07.626Z,1.73
2022-12-08T10:12:40.775Z,1.50
2022-12-08T10:15:56.369Z,1.20
2022-12-08T10:18:29.717Z,1.35
2022-12-08T10:21:00.488Z,1.20
2022-12-08T10:23:33.475Z,1.45
2022-12-08T10:26:05.657Z,1.10
2022-12-08T10:28:33.542Z,1.35
2022-12-08T10:31:00.452Z,1.35
2022-12-08T10:33:29.030Z,1.33
2022-12-08T10:36:03.018Z,1.35
2022-12-08T10:38:32.583Z,1.23
2022-12-08T10:41:12.462Z,1.20
2022-12-08T10:43:50.836Z,1.02
2022-12-08T10:46:22.864Z,1.30
2022-12-08T10:48:52.628Z,1.50
2022-12-08T10:51:30.984Z,1.00
2022-12-08T10:53:57.790Z,1.20
2022-12-08T10:56:29.467Z,1.55
2022-12-08T10:59:17.576Z,1.20
2022-12-08T11:01:48.920Z,1.27
2022-12-08T11:04:18.639Z,1.50
2022-12-08T11:06:45.507Z,1.45
2022-12-08T11:09:18.429Z,2.10
2022-12-08T11:11:47.797Z,1.92
2022-12-08T11:14:19.191Z,2.47
2022-12-08T11:16:45.882Z,2.20
2022-12-08T11:19:18.128Z,2.20
2022-12-08T11:21:44.590Z,2.25
2022-12-08T11:24:21.997Z,2.50
2022-12-08T11:27:03.029Z,2.83
2022-12-08T11:29:32.364Z,2.22
2022-12-08T11:32:19.711Z,2.40
2022-12-08T11:34:49.078Z,2.22
2022-12-08T11:37:39.276Z,2.50
2022-12-08T11:40:08.679Z,2.25
2022-12-08T11:42:42.572Z,2.45
2022-12-08T11:45:14.050Z,2.30
2022-12-08T11:47:55.498Z,2.40
2022-12-08T11:50:29.766Z,2.83
2022-12-08T11:52:57.074Z,2.42
2022-12-08T11:55:26.351Z,2.83
2022-12-08T11:57:54.977Z,3.00
2022-12-08T12:00:21.477Z,3.03
2022-12-08T12:02:57.194Z,3.00
2022-12-08T12:08:37.571Z,3.75
2022-12-08T12:11:55.549Z,3.65
2022-12-08T12:14:52.055Z,3.45
2022-12-08T12:17:34.602Z,4.47
2022-12-08T12:24:57.510Z,2.63
2022-12-08T12:27:34.803Z,2.65
2022-12-08T12:30:04.050Z,2.75
2022-12-08T12:32:43.461Z,2.53
2022-12-08T12:35:17.979Z,2.75
2022-12-08T12:37:44.581Z,2.45
2022-12-08T12:40:24.259Z,2.33
2022-12-08T12:42:56.670Z,2.80
2022-12-08T12:45:30.102Z,2.40
2022-12-08T12:47:57.180Z,2.33
2022-12-08T12:50:41.715Z,2.40
2022-12-08T12:53:17.187Z,2.15
2022-12-08T12:56:02.371Z,2.28
2022-12-08T12:58:28.706Z,2.03
2022-12-08T13:01:10.573Z,1.92
2022-12-08T13:03:42.486Z,2.05
2022-12-08T13:06:14.784Z,1.80
2022-12-08T13:08:50.336Z,1.55
2022-12-08T13:11:16.727Z,1.45
2022-12-08T13:14:16.783Z,1.77
2022-12-08T13:16:43.188Z,1.77
2022-12-08T13:19:16.095Z,2.00
2022-12-08T13:21:42.740Z,2.00
2022-12-08T13:24:17.739Z,2.10
2022-12-08T13:26:45.115Z,4.00
2022-12-08T13:29:25.117Z,3.20
2022-12-08T13:31:55.558Z,3.17
2022-12-08T13:34:37.005Z,2.42
2022-12-08T13:37:13.454Z,2.22
2022-12-08T13:39:39.826Z,2.63
2022-12-08T13:42:12.617Z,2.30
2022-12-08T13:45:21.493Z,2.42
2022-12-08T13:47:35.011Z,2.35
2022-12-08T13:58:37.750Z,2.40
2022-12-08T14:01:11.970Z,2.20
2022-12-08T14:04:12.897Z,1.77
2022-12-08T14:06:43.459Z,2.30
2022-12-08T14:09:16.371Z,2.83
2022-12-08T14:11:50.126Z,3.83
2022-12-08T14:14:32.685Z,2.80
2022-12-08T14:17:10.097Z,3.65
2022-12-08T14:19:36.564Z,3.25
2022-12-08T14:22:15.013Z,3.75
2022-12-08T14:24:45.417Z,3.60
2022-12-08T14:27:16.150Z,3.17
2022-12-08T14:29:47.849Z,3.90
2022-12-08T14:32:23.611Z,4.10
2022-12-08T14:35:14.907Z,4.88
2022-12-08T14:37:43.000Z,4.80
2022-12-08T14:40:22.760Z,4.13
2022-12-08T14:42:53.809Z,5.03
2022-12-08T14:45:20.381Z,4.68
2022-12-08T14:47:48.656Z,3.60
2022-12-08T14:50:41.141Z,3.67
2022-12-08T14:53:13.356Z,4.00
2022-12-08T14:55:39.814Z,3.80
2022-12-08T14:58:06.479Z,4.40
2022-12-08T15:00:33.360Z,4.20
2022-12-08T15:03:05.771Z,4.15
2022-12-08T15:05:32.555Z,4.13
2022-12-08T15:08:02.407Z,4.65
2022-12-08T15:10:31.922Z,4.65
2022-12-08T15:13:05.926Z,3.63
2022-12-08T15:15:46.200Z,4.00
2022-12-08T15:18:36.178Z,3.55
2022-12-08T15:21:05.162Z,4.05
2022-12-08T15:23:35.903Z,3.42
2022-12-08T15:26:04.796Z,3.92
2022-12-08T15:28:31.212Z,4.60
2022-12-08T15:30:58.562Z,4.78
2022-12-08T15:33:25.522Z,5.20
2022-12-08T15:35:52.425Z,5.20
2022-12-08T15:38:25.707Z,4.70
2022-12-08T15:40:53.273Z,6.43
2022-12-08T15:43:20.095Z,6.53
2022-12-08T15:45:57.838Z,6.70
2022-12-08T15:48:27.047Z,6.32
2022-12-08T15:50:54.531Z,5.40
2022-12-08T15:53:20.967Z,6.05
2022-12-08T15:56:10.784Z,6.90
2022-12-08T16:01:21.208Z,6.80
2022-12-08T16:09:27.357Z,7.38
2022-12-08T16:12:12.669Z,5.82
2022-12-08T16:15:48.132Z,6.75
2022-12-08T16:17:27.296Z,7.43
2022-12-08T16:19:54.124Z,7.97
2022-12-08T16:25:21.647Z,8.90
2022-12-08T16:28:17.237Z,7.30
2022-12-08T16:30:40.682Z,8.57
2022-12-08T16:33:07.105Z,6.82
2022-12-08T16:35:33.749Z,6.68
2022-12-08T16:38:00.232Z,7.18
2022-12-08T16:40:26.674Z,7.63
2022-12-08T16:42:54.631Z,7.20
2022-12-08T16:45:29.348Z,8.82
2022-12-08T16:47:56.511Z,7.15
2022-12-08T16:50:29.238Z,7.75
2022-12-08T16:52:59.196Z,7.70
2022-12-08T16:55:25.830Z,8.60
2022-12-08T16:57:52.655Z,8.70
2022-12-08T17:00:21.391Z,8.75
2022-12-08T17:02:48.497Z,9.73
2022-12-08T17:05:16.821Z,8.05
2022-12-08T17:07:45.847Z,6.38
2022-12-08T17:10:18.471Z,10.32
2022-12-08T17:12:45.121Z,9.85
2022-12-08T17:15:14.584Z,10.15
2022-12-08T17:17:41.237Z,8.25
2022-12-08T17:20:13.603Z,8.48
2022-12-08T17:22:40.024Z,10.55
2022-12-08T17:25:07.028Z,9.27
2022-12-08T17:27:33.636Z,8.23
2022-12-08T17:30:00.011Z,8.10
2022-12-08T17:32:26.925Z,7.82
2022-12-08T17:34:53.677Z,8.60
2022-12-08T17:37:20.272Z,9.82
2022-12-08T17:39:46.679Z,10.10
2022-12-08T17:42:13.210Z,10.45
2022-12-08T17:44:39.714Z,10.40
2022-12-08T17:47:06.137Z,9.60
2022-12-08T17:49:33.807Z,9.80
2022-12-08T17:52:02.628Z,9.32
2022-12-08T17:54:29.694Z,9.50
2022-12-08T17:56:58.571Z,9.32
2022-12-08T17:59:26.119Z,9.48
2022-12-08T18:01:53.770Z,9.05
2022-12-08T18:04:20.342Z,9.05
2022-12-08T18:06:46.841Z,9.38
2022-12-08T18:09:13.874Z,10.00
2022-12-08T18:11:40.358Z,10.30
2022-12-08T18:14:10.288Z,9.50
2022-12-08T18:16:42.901Z,10.13
2022-12-08T18:19:09.718Z,9.07
2022-12-08T18:21:36.825Z,8.63
2022-12-08T18:24:03.411Z,10.65
2022-12-08T18:26:30.810Z,8.52
2022-12-08T18:28:57.656Z,8.68
2022-12-08T18:31:24.364Z,9.93
2022-12-08T18:33:51.427Z,8.43
2022-12-08T18:36:23.306Z,8.80
2022-12-08T18:38:50.382Z,8.57
2022-12-08T18:41:24.407Z,8.98
2022-12-08T18:43:52.940Z,9.68
2022-12-08T18:46:19.337Z,10.57
2022-12-08T18:48:47.766Z,10.15
2022-12-08T18:51:18.902Z,10.02
2022-12-08T18:53:46.022Z,9.45
2022-12-08T18:56:27.713Z,11.25
2022-12-08T18:59:01.288Z,9.68
2022-12-08T19:01:30.209Z,9.48
2022-12-08T19:04:26.726Z,9.20
2022-12-08T19:06:46.026Z,9.60
2022-12-08T19:09:13.892Z,8.95
2022-12-08T19:11:40.377Z,9.88
2022-12-08T19:14:07.243Z,11.05
2022-12-08T19:16:33.677Z,10.85
2022-12-08T19:19:00.210Z,9.88
2022-12-08T19:21:26.835Z,10.48
2022-12-08T19:23:55.622Z,11.40
2022-12-08T19:26:22.187Z,11.45
2022-12-08T19:28:48.564Z,11.20
2022-12-08T19:31:14.995Z,11.77
2022-12-08T19:33:41.648Z,11.88
2022-12-08T19:36:10.718Z,12.45
2022-12-08T19:38:55.716Z,11.60
2022-12-08T19:41:41.351Z,13.48
2022-12-08T19:44:34.437Z,13.98
2022-12-08T19:47:01.539Z,14.52
2022-12-08T19:49:28.340Z,15.63
2022-12-08T19:51:54.726Z,15.00
2022-12-08T19:54:21.172Z,14.68
2022-12-08T19:56:47.793Z,18.88
2022-12-08T19:59:15.639Z,16.55
2022-12-08T20:01:44.456Z,15.13
2022-12-08T20:04:15.240Z,15.57
2022-12-08T20:06:42.060Z,18.65
2022-12-08T20:09:10.262Z,17.25
2022-12-08T20:11:37.448Z,20.30
2022-12-08T20:14:03.947Z,20.33
2022-12-08T20:16:30.522Z,24.55
2022-12-08T20:18:57.022Z,24.73
2022-12-08T20:21:23.454Z,20.92
2022-12-08T20:23:49.955Z,19.65
2022-12-08T20:26:21.828Z,19.25
2022-12-08T20:28:48.626Z,18.92
2022-12-08T20:31:27.132Z,14.88
2022-12-08T20:33:54.253Z,14.45
2022-12-08T20:36:21.882Z,16.50
2022-12-08T20:38:50.566Z,15.70
2022-12-08T20:41:17.115Z,17.35
2022-12-08T20:43:47.459Z,17.25
2022-12-08T20:48:43.270Z,21.90
2022-12-08T20:51:13.416Z,19.27
2022-12-08T20:53:39.960Z,21.02
2022-12-08T20:56:07.428Z,22.05
2022-12-08T20:58:33.909Z,22.33
2022-12-08T21:01:00.553Z,21.77
2022-12-08T21:03:27.093Z,20.88
2022-12-08T21:05:53.891Z,22.00
2022-12-08T21:08:20.545Z,20.23
2022-12-08T21:10:53.539Z,19.92
2022-12-08T21:13:20.024Z,17.90
2022-12-08T21:15:46.705Z,17.42
2022-12-08T21:18:14.778Z,17.30
2022-12-08T21:20:41.382Z,17.55
2022-12-08T21:23:08.047Z,16.92
2022-12-08T21:25:34.483Z,16.65
2022-12-08T21:28:01.003Z,17.88
2022-12-08T21:30:27.542Z,17.63
2022-12-08T21:32:54.187Z,18.15
2022-12-08T21:35:20.753Z,18.40
2022-12-08T21:37:47.181Z,17.73
2022-12-08T21:40:14.020Z,17.13
2022-12-08T21:42:43.500Z,16.23
2022-12-08T21:45:17.780Z,16.58
2022-12-08T21:47:45.307Z,15.23
2022-12-08T21:50:12.956Z,16.00
2022-12-08T21:52:41.559Z,15.82
2022-12-08T21:55:09.496Z,15.13
2022-12-08T21:57:35.901Z,16.33
2022-12-08T22:00:02.380Z,15.65
2022-12-08T22:02:29.386Z,14.52
2022-12-08T22:04:56.097Z,13.98
2022-12-08T22:07:22.777Z,15.23
2022-12-08T22:09:49.437Z,16.02
2022-12-08T22:12:16.886Z,16.48
2022-12-08T22:14:44.052Z,15.65
2022-12-08T22:17:10.856Z,15.70
2022-12-08T22:19:37.818Z,17.58
2022-12-08T22:22:04.327Z,16.60
2022-12-08T22:24:31.386Z,16.02
2022-12-08T22:26:57.936Z,15.30
2022-12-08T22:29:24.513Z,17.55
2022-12-08T22:31:50.974Z,17.25
2022-12-08T22:34:17.644Z,17.83
2022-12-08T22:36:44.352Z,17.33
2022-12-08T22:39:10.955Z,17.52
2022-12-08T22:41:37.386Z,17.63
2022-12-08T22:44:07.331Z,16.05
2022-12-08T22:46:33.792Z,14.75
2022-12-08T22:49:00.552Z,15.77
2022-12-08T22:51:26.959Z,17.73
2022-12-08T22:53:53.431Z,16.63
2022-12-08T22:56:19.995Z,16.48
2022-12-08T22:58:47.002Z,16.17
2022-12-08T23:01:39.683Z,16.05
2022-12-08T23:04:06.404Z,14.50
2022-12-08T23:06:33.034Z,16.05
2022-12-08T23:08:59.535Z,16.00
2022-12-08T23:11:29.232Z,18.00
2022-12-08T23:13:57.341Z,18.00
2022-12-08T23:16:24.115Z,19.30
2022-12-08T23:18:50.946Z,18.08
2022-12-08T23:21:19.033Z,18.40
2022-12-08T23:23:45.703Z,17.65
2022-12-08T23:26:16.191Z,17.67
2022-12-08T23:28:42.653Z,17.10
2022-12-08T23:31:09.417Z,17.42
2022-12-08T23:33:36.248Z,16.88
2022-12-08T23:36:02.701Z,18.20
2022-12-08T23:38:29.288Z,18.25
2022-12-08T23:41:01.041Z,16.52
2022-12-08T23:43:27.558Z,17.02
2022-12-08T23:45:53.995Z,15.48
2022-12-08T23:48:20.491Z,15.80
2022-12-08T23:50:47.077Z,16.85
2022-12-08T23:53:13.542Z,16.90
2022-12-08T23:55:40.121Z,15.93
2022-12-08T23:58:06.563Z,17.00
